ASP655 KSAN-KSFO
Flight info
| Callsign | ASP655 |
|---|---|
| Flight time | 1h 9m |
| Altitude | 40000 |
| Route | PADRZ2 IKAYE RIZIN SPLNT STOKD SERFR SERFR4 |
| Aircraft | C25B/L-SDE2E3FGHRWXY/LB1 |
Departure
| Time | 2026-04-20 03:30 |
|---|---|
| Airport | San Diego International Airport (KSAN) |
Arrival
| Time | 2026-04-20 04:39 |
|---|---|
| Airport | San Francisco International Airport (KSFO) |
| Time | Latitude | Longitude | Altitude | Speed | Heading |
|---|---|---|---|---|---|
| 2026-04-20 03:15 | 32.73391 | -117.17867 | 20 ft | 0 kts | 260° |
| 2026-04-20 03:25 | 32.73390 | -117.17877 | 20 ft | 4 kts | 260° |
| 2026-04-20 03:25 | 32.73379 | -117.17925 | 20 ft | 6 kts | 241° |
| 2026-04-20 03:25 | 32.73361 | -117.17949 | 20 ft | 4 kts | 214° |
| 2026-04-20 03:26 | 32.73324 | -117.17964 | 20 ft | 8 kts | 196° |
| 2026-04-20 03:26 | 32.73253 | -117.17979 | 20 ft | 13 kts | 170° |
| 2026-04-20 03:26 | 32.73207 | -117.17879 | 20 ft | 17 kts | 105° |
| 2026-04-20 03:26 | 32.73172 | -117.17734 | 20 ft | 19 kts | 106° |
| 2026-04-20 03:27 | 32.73137 | -117.17594 | 20 ft | 9 kts | 118° |
| 2026-04-20 03:27 | 32.73103 | -117.17559 | 20 ft | 7 kts | 144° |
| 2026-04-20 03:27 | 32.73090 | -117.17548 | 20 ft | 0 kts | 145° |
| 2026-04-20 03:28 | 32.73089 | -117.17547 | 20 ft | 2 kts | 145° |
| 2026-04-20 03:28 | 32.73017 | -117.17571 | 20 ft | 2 kts | 289° |
| 2026-04-20 03:29 | 32.73018 | -117.17572 | 20 ft | 0 kts | 289° |
| 2026-04-20 03:30 | 32.73071 | -117.17790 | 20 ft | 84 kts | 285° |
| 2026-04-20 03:30 | 32.73336 | -117.18868 | 388 ft | 170 kts | 285° |
| 2026-04-20 03:30 | 32.73674 | -117.20398 | 1210 ft | 206 kts | 283° |
| 2026-04-20 03:30 | 32.74431 | -117.21826 | 2577 ft | 211 kts | 319° |
| 2026-04-20 03:31 | 32.75434 | -117.23094 | 3906 ft | 211 kts | 301° |
| 2026-04-20 03:31 | 32.76178 | -117.24620 | 5128 ft | 218 kts | 298° |
| 2026-04-20 03:31 | 32.77003 | -117.26238 | 5715 ft | 242 kts | 298° |
| 2026-04-20 03:31 | 32.77919 | -117.28003 | 5865 ft | 260 kts | 300° |
| 2026-04-20 03:32 | 32.78901 | -117.29863 | 5876 ft | 271 kts | 299° |
| 2026-04-20 03:32 | 32.79910 | -117.31785 | 5881 ft | 277 kts | 301° |
| 2026-04-20 03:32 | 32.81106 | -117.33605 | 5885 ft | 282 kts | 307° |
| 2026-04-20 03:32 | 32.82314 | -117.35473 | 6131 ft | 286 kts | 304° |
| 2026-04-20 03:33 | 32.83516 | -117.37363 | 6491 ft | 287 kts | 305° |
| 2026-04-20 03:33 | 32.84743 | -117.39248 | 6822 ft | 289 kts | 305° |
| 2026-04-20 03:33 | 32.85962 | -117.41149 | 7142 ft | 290 kts | 305° |
| 2026-04-20 03:33 | 32.87195 | -117.43048 | 7465 ft | 291 kts | 305° |
| 2026-04-20 03:34 | 32.88422 | -117.44976 | 8678 ft | 288 kts | 306° |
| 2026-04-20 03:34 | 32.89655 | -117.46873 | 10093 ft | 293 kts | 306° |
| 2026-04-20 03:34 | 32.90903 | -117.48823 | 11293 ft | 299 kts | 305° |
| 2026-04-20 03:34 | 32.92184 | -117.50809 | 12495 ft | 306 kts | 306° |
| 2026-04-20 03:35 | 32.93492 | -117.52849 | 13706 ft | 313 kts | 305° |
| 2026-04-20 03:35 | 32.94826 | -117.54925 | 14825 ft | 317 kts | 306° |
| 2026-04-20 03:35 | 32.96174 | -117.57023 | 15975 ft | 321 kts | 305° |
| 2026-04-20 03:35 | 32.97536 | -117.59155 | 17105 ft | 326 kts | 306° |
| 2026-04-20 03:36 | 32.98924 | -117.61313 | 18262 ft | 330 kts | 305° |
| 2026-04-20 03:36 | 33.00320 | -117.63503 | 19259 ft | 333 kts | 306° |
| 2026-04-20 03:36 | 33.01739 | -117.65708 | 20267 ft | 337 kts | 306° |
| 2026-04-20 03:36 | 33.03158 | -117.67940 | 21311 ft | 340 kts | 306° |
| 2026-04-20 03:37 | 33.04604 | -117.70190 | 22372 ft | 343 kts | 306° |
| 2026-04-20 03:37 | 33.06063 | -117.72455 | 23411 ft | 347 kts | 308° |
| 2026-04-20 03:37 | 33.07847 | -117.74420 | 24271 ft | 351 kts | 320° |
| 2026-04-20 03:37 | 33.09711 | -117.76308 | 25173 ft | 353 kts | 317° |
| 2026-04-20 03:38 | 33.11562 | -117.78247 | 26039 ft | 355 kts | 318° |
| 2026-04-20 03:38 | 33.13458 | -117.80161 | 26900 ft | 358 kts | 319° |
| 2026-04-20 03:38 | 33.15366 | -117.82089 | 27738 ft | 361 kts | 319° |
| 2026-04-20 03:38 | 33.17285 | -117.84040 | 28547 ft | 363 kts | 318° |
| 2026-04-20 03:39 | 33.19181 | -117.85989 | 29315 ft | 366 kts | 318° |
| 2026-04-20 03:39 | 33.21031 | -117.88148 | 30021 ft | 369 kts | 314° |
| 2026-04-20 03:39 | 33.22845 | -117.90335 | 30630 ft | 372 kts | 314° |
| 2026-04-20 03:39 | 33.24692 | -117.92512 | 31208 ft | 375 kts | 314° |
| 2026-04-20 03:40 | 33.26548 | -117.94713 | 31766 ft | 377 kts | 314° |
| 2026-04-20 03:40 | 33.28412 | -117.96941 | 32301 ft | 380 kts | 314° |
| 2026-04-20 03:40 | 33.30282 | -117.99186 | 32807 ft | 383 kts | 314° |
| 2026-04-20 03:40 | 33.32173 | -118.01438 | 33283 ft | 385 kts | 314° |
| 2026-04-20 03:41 | 33.34073 | -118.03711 | 33734 ft | 387 kts | 314° |
| 2026-04-20 03:41 | 33.35848 | -118.05830 | 34111 ft | 390 kts | 313° |
| 2026-04-20 03:41 | 33.37766 | -118.08134 | 34424 ft | 393 kts | 313° |
| 2026-04-20 03:41 | 33.39709 | -118.10456 | 34717 ft | 397 kts | 313° |
| 2026-04-20 03:42 | 33.41666 | -118.12806 | 35028 ft | 400 kts | 313° |
| 2026-04-20 03:42 | 33.43636 | -118.15165 | 35312 ft | 402 kts | 313° |
| 2026-04-20 03:42 | 33.45553 | -118.17464 | 36584 ft | 376 kts | 312° |
| 2026-04-20 03:42 | 33.47357 | -118.19624 | 37364 ft | 372 kts | 311° |
| 2026-04-20 03:43 | 33.49196 | -118.21847 | 37634 ft | 379 kts | 311° |
| 2026-04-20 03:43 | 33.51063 | -118.24095 | 38011 ft | 382 kts | 310° |
| 2026-04-20 03:43 | 33.52951 | -118.26365 | 38354 ft | 386 kts | 310° |
| 2026-04-20 03:43 | 33.54854 | -118.28653 | 38678 ft | 389 kts | 310° |
| 2026-04-20 03:44 | 33.56769 | -118.30962 | 38950 ft | 392 kts | 310° |
| 2026-04-20 03:44 | 33.58697 | -118.33289 | 39208 ft | 395 kts | 310° |
| 2026-04-20 03:44 | 33.60641 | -118.35632 | 39461 ft | 397 kts | 310° |
| 2026-04-20 03:44 | 33.62592 | -118.37989 | 39734 ft | 399 kts | 310° |
| 2026-04-20 03:45 | 33.64547 | -118.40350 | 39982 ft | 401 kts | 309° |
| 2026-04-20 03:45 | 33.66516 | -118.42728 | 39979 ft | 397 kts | 309° |
| 2026-04-20 03:45 | 33.70309 | -118.47311 | 39975 ft | 378 kts | 309° |
| 2026-04-20 03:46 | 33.73933 | -118.51709 | 39974 ft | 364 kts | 309° |
| 2026-04-20 03:46 | 33.77441 | -118.55967 | 39965 ft | 353 kts | 309° |
| 2026-04-20 03:47 | 33.80852 | -118.60113 | 39970 ft | 345 kts | 309° |
| 2026-04-20 03:47 | 33.84200 | -118.64187 | 39968 ft | 341 kts | 308° |
| 2026-04-20 03:48 | 33.87557 | -118.68277 | 39980 ft | 346 kts | 309° |
| 2026-04-20 03:48 | 33.90964 | -118.72427 | 39989 ft | 351 kts | 309° |
| 2026-04-20 03:49 | 33.94408 | -118.76634 | 39987 ft | 354 kts | 309° |
| 2026-04-20 03:49 | 33.97881 | -118.80879 | 39989 ft | 357 kts | 309° |
| 2026-04-20 03:50 | 34.01376 | -118.85159 | 39988 ft | 360 kts | 309° |
| 2026-04-20 03:50 | 34.04889 | -118.89463 | 39980 ft | 365 kts | 309° |
| 2026-04-20 03:51 | 34.08461 | -118.93846 | 39989 ft | 368 kts | 309° |
| 2026-04-20 03:51 | 34.12062 | -118.98266 | 39982 ft | 370 kts | 309° |
| 2026-04-20 03:52 | 34.15332 | -119.02999 | 39985 ft | 364 kts | 297° |
| 2026-04-20 03:52 | 34.18008 | -119.08206 | 39981 ft | 365 kts | 297° |
| 2026-04-20 03:53 | 34.20702 | -119.13414 | 39982 ft | 366 kts | 297° |
| 2026-04-20 03:53 | 34.23391 | -119.18643 | 39982 ft | 367 kts | 297° |
| 2026-04-20 03:54 | 34.26119 | -119.23953 | 39984 ft | 378 kts | 297° |
| 2026-04-20 03:54 | 34.28921 | -119.29396 | 39979 ft | 380 kts | 297° |
| 2026-04-20 03:55 | 34.31681 | -119.34787 | 39982 ft | 374 kts | 297° |
| 2026-04-20 03:55 | 34.34401 | -119.40103 | 39973 ft | 369 kts | 296° |
| 2026-04-20 03:56 | 34.37086 | -119.45355 | 39966 ft | 365 kts | 297° |
| 2026-04-20 03:56 | 34.39746 | -119.50569 | 39979 ft | 363 kts | 297° |
| 2026-04-20 03:57 | 34.42855 | -119.55400 | 39969 ft | 367 kts | 309° |
| 2026-04-20 03:57 | 34.46440 | -119.59784 | 39957 ft | 365 kts | 309° |
| 2026-04-20 03:58 | 34.49991 | -119.64156 | 39969 ft | 362 kts | 309° |
| 2026-04-20 03:58 | 34.53522 | -119.68513 | 39959 ft | 362 kts | 309° |
| 2026-04-20 03:59 | 34.57054 | -119.72859 | 39961 ft | 361 kts | 309° |
| 2026-04-20 03:59 | 34.60574 | -119.77211 | 39951 ft | 361 kts | 309° |
| 2026-04-20 04:00 | 34.64079 | -119.81546 | 39966 ft | 360 kts | 309° |
| 2026-04-20 04:00 | 34.67588 | -119.85884 | 39975 ft | 360 kts | 309° |
| 2026-04-20 04:01 | 34.71093 | -119.90231 | 39973 ft | 360 kts | 309° |
| 2026-04-20 04:01 | 34.74598 | -119.94580 | 39984 ft | 360 kts | 308° |
| 2026-04-20 04:02 | 34.78072 | -119.98895 | 39980 ft | 358 kts | 308° |
| 2026-04-20 04:02 | 34.81548 | -120.03225 | 39994 ft | 358 kts | 308° |
| 2026-04-20 04:03 | 34.85028 | -120.07557 | 39996 ft | 358 kts | 308° |
| 2026-04-20 04:03 | 34.88504 | -120.11894 | 39993 ft | 358 kts | 308° |
| 2026-04-20 04:04 | 34.91426 | -120.15547 | 39997 ft | 361 kts | 308° |
| 2026-04-20 04:04 | 34.94940 | -120.19936 | 40006 ft | 364 kts | 308° |
| 2026-04-20 04:05 | 34.98481 | -120.24372 | 40011 ft | 366 kts | 308° |
| 2026-04-20 04:05 | 35.02042 | -120.28827 | 40015 ft | 368 kts | 308° |
| 2026-04-20 04:06 | 35.05606 | -120.33313 | 40014 ft | 369 kts | 308° |
| 2026-04-20 04:06 | 35.09185 | -120.37765 | 40013 ft | 372 kts | 311° |
| 2026-04-20 04:07 | 35.13022 | -120.42025 | 40015 ft | 373 kts | 311° |
| 2026-04-20 04:07 | 35.16843 | -120.46323 | 40003 ft | 373 kts | 311° |
| 2026-04-20 04:08 | 35.20665 | -120.50600 | 40012 ft | 371 kts | 311° |
| 2026-04-20 04:08 | 35.24469 | -120.54879 | 40007 ft | 372 kts | 311° |
| 2026-04-20 04:09 | 35.28292 | -120.59177 | 40008 ft | 374 kts | 311° |
| 2026-04-20 04:09 | 35.32132 | -120.63500 | 40008 ft | 375 kts | 311° |
| 2026-04-20 04:10 | 35.35980 | -120.67836 | 40009 ft | 376 kts | 311° |
| 2026-04-20 04:10 | 35.39828 | -120.72183 | 40009 ft | 377 kts | 311° |
| 2026-04-20 04:11 | 35.43689 | -120.76544 | 40013 ft | 377 kts | 311° |
| 2026-04-20 04:11 | 35.47537 | -120.80903 | 40018 ft | 376 kts | 311° |
| 2026-04-20 04:12 | 35.51697 | -120.84896 | 40016 ft | 381 kts | 316° |
| 2026-04-20 04:12 | 35.55907 | -120.88838 | 40015 ft | 381 kts | 316° |
| 2026-04-20 04:13 | 35.60147 | -120.92760 | 40016 ft | 382 kts | 316° |
| 2026-04-20 04:13 | 35.64390 | -120.96709 | 40014 ft | 383 kts | 316° |
| 2026-04-20 04:14 | 35.68612 | -121.00634 | 40004 ft | 383 kts | 316° |
| 2026-04-20 04:14 | 35.72857 | -121.04597 | 40011 ft | 383 kts | 316° |
| 2026-04-20 04:15 | 35.77114 | -121.08571 | 40014 ft | 385 kts | 316° |
| 2026-04-20 04:15 | 35.81383 | -121.12559 | 39883 ft | 388 kts | 316° |
| 2026-04-20 04:16 | 35.83568 | -121.14612 | 39399 ft | 400 kts | 316° |
| 2026-04-20 04:16 | 35.85762 | -121.16663 | 38881 ft | 392 kts | 317° |
| 2026-04-20 04:16 | 35.87911 | -121.18662 | 38315 ft | 382 kts | 316° |
| 2026-04-20 04:16 | 35.89997 | -121.20619 | 37817 ft | 371 kts | 316° |
| 2026-04-20 04:17 | 35.92026 | -121.22530 | 37341 ft | 365 kts | 316° |
| 2026-04-20 04:17 | 35.94059 | -121.24447 | 36828 ft | 373 kts | 316° |
| 2026-04-20 04:17 | 35.96147 | -121.26415 | 36348 ft | 383 kts | 316° |
| 2026-04-20 04:17 | 35.98290 | -121.28424 | 35838 ft | 391 kts | 316° |
| 2026-04-20 04:18 | 36.00466 | -121.30469 | 35326 ft | 393 kts | 317° |
| 2026-04-20 04:18 | 36.02630 | -121.32497 | 34807 ft | 387 kts | 316° |
| 2026-04-20 04:18 | 36.04757 | -121.34505 | 34297 ft | 383 kts | 316° |
| 2026-04-20 04:18 | 36.06874 | -121.36485 | 33768 ft | 380 kts | 318° |
| 2026-04-20 04:19 | 36.09115 | -121.38213 | 33257 ft | 380 kts | 322° |
| 2026-04-20 04:19 | 36.11375 | -121.39984 | 32748 ft | 389 kts | 321° |
| 2026-04-20 04:19 | 36.13675 | -121.41815 | 32230 ft | 397 kts | 321° |
| 2026-04-20 04:19 | 36.16041 | -121.43659 | 31701 ft | 405 kts | 322° |
| 2026-04-20 04:20 | 36.18441 | -121.45512 | 31163 ft | 409 kts | 322° |
| 2026-04-20 04:20 | 36.20858 | -121.47401 | 30630 ft | 413 kts | 322° |
| 2026-04-20 04:20 | 36.23298 | -121.49315 | 30066 ft | 417 kts | 322° |
| 2026-04-20 04:20 | 36.25747 | -121.51239 | 29482 ft | 417 kts | 322° |
| 2026-04-20 04:21 | 36.28204 | -121.53151 | 28940 ft | 416 kts | 321° |
| 2026-04-20 04:21 | 36.30654 | -121.55076 | 28392 ft | 418 kts | 322° |
| 2026-04-20 04:21 | 36.33116 | -121.57001 | 27833 ft | 419 kts | 321° |
| 2026-04-20 04:21 | 36.35580 | -121.58936 | 27279 ft | 420 kts | 322° |
| 2026-04-20 04:22 | 36.38051 | -121.60882 | 26727 ft | 420 kts | 322° |
| 2026-04-20 04:22 | 36.40521 | -121.62820 | 26173 ft | 421 kts | 322° |
| 2026-04-20 04:22 | 36.42997 | -121.64771 | 25625 ft | 422 kts | 322° |
| 2026-04-20 04:22 | 36.45481 | -121.66726 | 25066 ft | 424 kts | 322° |
| 2026-04-20 04:23 | 36.47976 | -121.68683 | 24507 ft | 425 kts | 322° |
| 2026-04-20 04:23 | 36.50473 | -121.70666 | 23942 ft | 426 kts | 322° |
| 2026-04-20 04:23 | 36.52980 | -121.72642 | 23354 ft | 427 kts | 322° |
| 2026-04-20 04:23 | 36.55489 | -121.74619 | 22771 ft | 426 kts | 322° |
| 2026-04-20 04:24 | 36.57987 | -121.76596 | 22200 ft | 425 kts | 322° |
| 2026-04-20 04:24 | 36.60474 | -121.78564 | 21644 ft | 424 kts | 322° |
| 2026-04-20 04:24 | 36.62943 | -121.80525 | 21096 ft | 416 kts | 322° |
| 2026-04-20 04:24 | 36.65359 | -121.82429 | 20538 ft | 407 kts | 322° |
| 2026-04-20 04:25 | 36.67721 | -121.84303 | 20003 ft | 399 kts | 322° |
| 2026-04-20 04:25 | 36.70047 | -121.86159 | 19485 ft | 395 kts | 322° |
| 2026-04-20 04:25 | 36.72353 | -121.87981 | 18980 ft | 391 kts | 323° |
| 2026-04-20 04:25 | 36.74825 | -121.89435 | 18460 ft | 395 kts | 336° |
| 2026-04-20 04:26 | 36.77478 | -121.90363 | 17911 ft | 397 kts | 345° |
| 2026-04-20 04:26 | 36.80125 | -121.91069 | 17390 ft | 395 kts | 344° |
| 2026-04-20 04:26 | 36.82845 | -121.91842 | 16897 ft | 393 kts | 344° |
| 2026-04-20 04:26 | 36.85510 | -121.92592 | 16392 ft | 391 kts | 344° |
| 2026-04-20 04:27 | 36.88159 | -121.93336 | 15878 ft | 390 kts | 345° |
| 2026-04-20 04:27 | 36.90809 | -121.94065 | 15363 ft | 389 kts | 345° |
| 2026-04-20 04:27 | 36.93409 | -121.94799 | 14844 ft | 388 kts | 345° |
| 2026-04-20 04:27 | 36.96019 | -121.95599 | 14338 ft | 384 kts | 340° |
| 2026-04-20 04:28 | 36.98557 | -121.96631 | 13839 ft | 383 kts | 339° |
| 2026-04-20 04:28 | 37.01100 | -121.97627 | 13296 ft | 383 kts | 340° |
| 2026-04-20 04:28 | 37.03639 | -121.98597 | 12787 ft | 380 kts | 341° |
| 2026-04-20 04:28 | 37.06157 | -121.99571 | 12286 ft | 378 kts | 340° |
| 2026-04-20 04:29 | 37.08663 | -122.00565 | 11776 ft | 376 kts | 340° |
| 2026-04-20 04:29 | 37.11153 | -122.01533 | 11287 ft | 374 kts | 341° |
| 2026-04-20 04:29 | 37.13622 | -122.02500 | 10788 ft | 363 kts | 340° |
| 2026-04-20 04:29 | 37.15940 | -122.03404 | 10318 ft | 337 kts | 341° |
| 2026-04-20 04:30 | 37.18105 | -122.04255 | 9890 ft | 315 kts | 341° |
| 2026-04-20 04:30 | 37.20142 | -122.05041 | 9460 ft | 298 kts | 341° |
| 2026-04-20 04:30 | 37.22068 | -122.05790 | 9068 ft | 282 kts | 341° |
| 2026-04-20 04:30 | 37.23894 | -122.06532 | 8696 ft | 270 kts | 340° |
| 2026-04-20 04:31 | 37.25660 | -122.07223 | 8350 ft | 268 kts | 341° |
| 2026-04-20 04:31 | 37.27478 | -122.07914 | 8002 ft | 276 kts | 341° |
| 2026-04-20 04:31 | 37.29342 | -122.08669 | 7548 ft | 286 kts | 339° |
| 2026-04-20 04:31 | 37.31255 | -122.09436 | 7170 ft | 290 kts | 340° |
| 2026-04-20 04:32 | 37.33187 | -122.10181 | 6808 ft | 291 kts | 342° |
| 2026-04-20 04:32 | 37.35122 | -122.10922 | 6461 ft | 291 kts | 341° |
| 2026-04-20 04:32 | 37.37059 | -122.11695 | 6089 ft | 292 kts | 341° |
| 2026-04-20 04:32 | 37.39007 | -122.12386 | 5730 ft | 291 kts | 344° |
| 2026-04-20 04:33 | 37.40960 | -122.13045 | 5359 ft | 290 kts | 343° |
| 2026-04-20 04:33 | 37.42901 | -122.13734 | 5013 ft | 289 kts | 343° |
| 2026-04-20 04:33 | 37.44839 | -122.14393 | 4660 ft | 288 kts | 343° |
| 2026-04-20 04:33 | 37.46764 | -122.15052 | 4302 ft | 286 kts | 343° |
| 2026-04-20 04:34 | 37.48681 | -122.15660 | 3956 ft | 279 kts | 344° |
| 2026-04-20 04:34 | 37.50502 | -122.16261 | 3624 ft | 263 kts | 343° |
| 2026-04-20 04:34 | 37.52182 | -122.16969 | 3323 ft | 247 kts | 329° |
| 2026-04-20 04:34 | 37.53555 | -122.18191 | 3024 ft | 238 kts | 315° |
| 2026-04-20 04:35 | 37.54619 | -122.19712 | 2729 ft | 230 kts | 298° |
| 2026-04-20 04:35 | 37.55374 | -122.21429 | 2564 ft | 220 kts | 294° |
| 2026-04-20 04:35 | 37.56072 | -122.23119 | 2278 ft | 213 kts | 292° |
| 2026-04-20 04:35 | 37.56753 | -122.24732 | 1999 ft | 200 kts | 295° |
| 2026-04-20 04:36 | 37.57907 | -122.27485 | 1498 ft | 152 kts | 295° |
| 2026-04-20 04:36 | 37.58347 | -122.28531 | 1325 ft | 121 kts | 293° |
| 2026-04-20 04:36 | 37.58704 | -122.29401 | 1150 ft | 109 kts | 294° |
| 2026-04-20 04:37 | 37.59056 | -122.30244 | 1021 ft | 110 kts | 295° |
| 2026-04-20 04:37 | 37.59427 | -122.31074 | 860 ft | 105 kts | 294° |
| 2026-04-20 04:37 | 37.59764 | -122.31880 | 718 ft | 103 kts | 293° |
| 2026-04-20 04:37 | 37.60095 | -122.32703 | 570 ft | 106 kts | 292° |
| 2026-04-20 04:38 | 37.60446 | -122.33526 | 430 ft | 107 kts | 294° |
| 2026-04-20 04:38 | 37.60796 | -122.34344 | 297 ft | 105 kts | 292° |
| 2026-04-20 04:38 | 37.61122 | -122.35159 | 193 ft | 104 kts | 293° |
| 2026-04-20 04:38 | 37.61460 | -122.35965 | 69 ft | 103 kts | 291° |
| 2026-04-20 04:39 | 37.61780 | -122.36727 | 17 ft | 90 kts | 293° |
| 2026-04-20 04:39 | 37.62005 | -122.37271 | 17 ft | 52 kts | 300° |
| 2026-04-20 04:39 | 37.62145 | -122.37605 | 17 ft | 37 kts | 297° |
| 2026-04-20 04:39 | 37.62252 | -122.37858 | 17 ft | 30 kts | 297° |
| 2026-04-20 04:40 | 37.62341 | -122.38072 | 17 ft | 25 kts | 297° |
| 2026-04-20 04:40 | 37.62402 | -122.38176 | 17 ft | 9 kts | 352° |
| 2026-04-20 04:40 | 37.62470 | -122.38137 | 17 ft | 13 kts | 28° |
| 2026-04-20 04:40 | 37.62531 | -122.38153 | 17 ft | 10 kts | 298° |
| 2026-04-20 04:41 | 37.62565 | -122.38239 | 17 ft | 12 kts | 296° |
| 2026-04-20 04:41 | 37.62609 | -122.38341 | 17 ft | 14 kts | 298° |
| 2026-04-20 04:41 | 37.62652 | -122.38442 | 17 ft | 6 kts | 301° |
| 2026-04-20 04:41 | 37.62695 | -122.38459 | 17 ft | 9 kts | 30° |
| 2026-04-20 04:42 | 37.62759 | -122.38413 | 17 ft | 12 kts | 23° |
| 2026-04-20 04:42 | 37.62797 | -122.38434 | 17 ft | 1 kts | 245° |